Time;durP1;ratioP1;P1;durP2;ratioP2;P2;SDS_P1;SDS_P2;PMS_P1;PMS_P2;Temp;Humidity;BMP_temperature;BMP_pressure;BME280_temperature;BME280_humidity;BME280_pressure;Samples;Min_cycle;Max_cycle;Signal;HPM_P1;HPM_P2
2022/11/17 00:06:37;;;;;;;9.50;8.50;;;;;;;1.57;99.98;98591.24;435521;1281;197591;-62
2022/11/17 00:16:43;;;;;;;8.50;7.60;;;;;;;1.59;99.96;98587.88;431901;1288;142734;-62
2022/11/17 00:27:01;;;;;;;10.20;8.70;;;;;;;1.60;99.87;98593.86;433861;1282;143086;-62
2022/11/17 00:37:08;;;;;;;10.10;8.60;;;;;;;1.56;99.39;98591.60;422628;1283;146669;-63
2022/11/17 00:47:13;;;;;;;8.80;7.90;;;;;;;1.54;99.02;98588.92;421494;1280;146816;-60
2022/11/17 00:57:19;;;;;;;9.30;8.30;;;;;;;1.51;98.89;98586.81;418675;1275;144928;-61
2022/11/17 01:07:25;;;;;;;10.30;9.30;;;;;;;1.48;98.72;98583.66;420954;1280;143763;-63
2022/11/17 01:17:30;;;;;;;9.50;8.60;;;;;;;1.46;98.79;98568.91;419924;1280;143571;-61
2022/11/17 01:27:37;;;;;;;10.40;9.10;;;;;;;1.45;98.76;98561.55;418996;1281;210430;-62
2022/11/17 01:37:42;;;;;;;9.30;7.90;;;;;;;1.45;98.60;98560.16;420500;1283;145595;-62
2022/11/17 01:47:52;;;;;;;9.50;8.50;;;;;;;1.44;98.57;98559.55;419663;1281;187278;-63
2022/11/17 01:58:02;;;;;;;7.50;6.80;;;;;;;1.40;98.30;98555.02;419870;1288;144208;-61
2022/11/17 02:08:09;;;;;;;8.40;7.40;;;;;;;1.38;98.17;98555.13;421218;1283;144180;-62
2022/11/17 02:18:15;;;;;;;7.00;6.30;;;;;;;1.33;97.96;98566.88;420836;1277;142595;-62
2022/11/17 02:28:24;;;;;;;7.60;6.00;;;;;;;1.31;97.79;98560.77;421740;1281;142821;-63
2022/11/17 02:38:39;;;;;;;8.10;6.50;;;;;;;1.32;97.54;98559.54;420130;1285;142672;-62
2022/11/17 02:48:49;;;;;;;7.00;6.30;;;;;;;1.31;97.35;98556.47;420342;1286;145510;-61
2022/11/17 02:59:00;;;;;;;6.90;6.00;;;;;;;1.23;97.39;98562.48;422264;1283;143163;-62
2022/11/17 03:09:15;;;;;;;8.90;6.80;;;;;;;1.14;97.29;98565.26;421527;1282;143419;-62
2022/11/17 03:19:28;;;;;;;7.50;6.70;;;;;;;1.06;97.31;98565.77;428176;1277;144584;-63
2022/11/17 03:29:36;;;;;;;7.50;6.70;;;;;;;0.97;97.30;98567.82;424255;1281;143051;-63
2022/11/17 03:39:48;;;;;;;7.00;6.10;;;;;;;0.88;97.06;98570.80;423817;1284;214166;-62
2022/11/17 03:49:58;;;;;;;7.30;6.30;;;;;;;0.80;96.97;98571.46;419934;1281;144044;-62
2022/11/17 04:00:07;;;;;;;6.30;5.60;;;;;;;0.73;96.91;98561.93;423191;1277;146030;-63
2022/11/17 04:10:14;;;;;;;7.30;6.60;;;;;;;0.68;96.71;98570.05;421362;1277;145243;-62
2022/11/17 04:20:20;;;;;;;7.30;6.70;;;;;;;0.61;96.38;98565.15;427839;1281;141525;-61
2022/11/17 04:30:26;;;;;;;7.50;5.80;;;;;;;0.53;96.03;98571.82;423102;1284;146673;-61
2022/11/17 04:41:52;;;;;;;8.40;6.80;;;;;;;0.46;95.90;98575.54;421151;1277;141829;-63
2022/11/17 04:50:57;;;;;;;8.90;7.30;;;;;;;0.36;95.77;98572.29;423621;1283;143733;-61
2022/11/17 05:01:12;;;;;;;8.00;7.30;;;;;;;0.27;95.87;98586.09;421182;1283;141901;-63
2022/11/17 05:21:44;;;;;;;7.00;6.40;;;;;;;0.22;95.81;98594.02;423297;1275;212424;-62
2022/11/17 05:31:50;;;;;;;8.20;7.10;;;;;;;0.19;95.73;98597.58;427882;1281;145959;-62
2022/11/17 05:41:55;;;;;;;7.90;7.10;;;;;;;0.16;95.73;98595.77;423428;1280;147314;-61
2022/11/17 05:52:01;;;;;;;8.70;7.80;;;;;;;0.17;95.72;98592.81;419997;1277;146454;-61
2022/11/17 06:02:10;;;;;;;6.60;6.00;;;;;;;0.14;95.45;98591.38;428578;1280;145966;-62
2022/11/17 06:12:16;;;;;;;7.50;6.40;;;;;;;0.12;95.29;98593.70;430248;1281;146682;-62
2022/11/17 06:22:21;;;;;;;6.80;5.70;;;;;;;0.14;95.02;98601.89;435768;1278;146164;-62
2022/11/17 06:32:29;;;;;;;5.60;4.40;;;;;;;0.17;94.42;98606.41;429970;1278;143591;-61
2022/11/17 06:52:59;;;;;;;5.60;4.60;;;;;;;0.23;92.85;98622.20;435961;1283;238921;-61
2022/11/17 07:03:07;;;;;;;5.80;4.50;;;;;;;0.30;91.94;98617.14;435359;1283;185089;-62
2022/11/17 07:13:13;;;;;;;4.60;3.50;;;;;;;0.39;91.12;98614.91;436264;1283;143954;-61
2022/11/17 07:23:19;;;;;;;3.70;3.30;;;;;;;0.43;90.43;98621.81;429049;1283;142795;-61
2022/11/17 07:33:24;;;;;;;3.70;3.30;;;;;;;0.50;90.01;98618.98;430440;1283;142992;-62
2022/11/17 07:43:30;;;;;;;5.70;3.90;;;;;;;0.57;89.65;98627.84;421498;1276;143842;-61
2022/11/17 07:53:36;;;;;;;4.50;4.10;;;;;;;0.60;88.62;98629.59;419223;1281;144081;-62
2022/11/17 08:03:42;;;;;;;6.50;5.00;;;;;;;0.52;88.61;98626.12;426641;1283;141612;-62
2022/11/17 08:13:48;;;;;;;4.50;4.10;;;;;;;0.47;89.23;98621.48;436138;1283;142228;-62
2022/11/17 08:23:55;;;;;;;6.30;4.60;;;;;;;0.46;89.30;98629.80;435504;1283;143372;-62
2022/11/17 08:34:00;;;;;;;5.00;4.40;;;;;;;0.48;89.09;98635.58;436261;1278;143507;-61
2022/11/17 08:44:06;;;;;;;8.10;4.90;;;;;;;0.49;88.66;98632.61;436198;1283;142819;-61
2022/11/17 08:54:13;;;;;;;5.00;4.60;;;;;;;0.54;88.34;98649.46;435579;1283;141915;-62
2022/11/17 09:04:19;;;;;;;5.30;4.10;;;;;;;0.60;87.66;98653.05;436233;1284;144242;-62
2022/11/17 09:14:26;;;;;;;5.80;4.90;;;;;;;0.65;87.21;98652.33;436293;1282;145498;-62
2022/11/17 09:24:31;;;;;;;5.10;4.30;;;;;;;0.61;86.58;98646.79;428522;1284;142874;-62
2022/11/17 09:34:37;;;;;;;3.80;3.30;;;;;;;0.52;86.80;98643.17;419848;1277;152773;-61
2022/11/17 09:44:47;;;;;;;5.30;3.40;;;;;;;0.51;86.65;98645.10;433986;1283;141682;-62
2022/11/17 09:54:57;;;;;;;3.10;2.80;;;;;;;0.46;85.96;98638.76;436274;1282;142500;-61
2022/11/17 10:05:03;;;;;;;4.60;3.60;;;;;;;0.54;85.86;98639.65;436192;1283;143683;-62
2022/11/17 10:15:25;;;;;;;3.60;3.30;;;;;;;0.50;84.82;98641.20;435529;1283;142738;-62
2022/11/17 10:25:38;;;;;;;5.10;4.60;;;;;;;0.54;84.88;98630.02;427462;1283;142669;-61
2022/11/17 10:35:56;;;;;;;6.70;4.80;;;;;;;0.49;84.19;98633.13;435498;1284;144122;-62
2022/11/17 10:46:12;;;;;;;5.50;4.20;;;;;;;0.35;83.60;98635.88;436270;1277;143512;-61
2022/11/17 10:56:20;;;;;;;3.10;2.80;;;;;;;0.29;83.45;98634.21;436260;1285;142894;-61
2022/11/17 11:06:28;;;;;;;3.90;3.50;;;;;;;0.24;83.38;98629.72;435545;1282;143498;-62
2022/11/17 11:16:34;;;;;;;3.20;2.90;;;;;;;0.32;83.68;98626.69;436249;1276;144513;-62
2022/11/17 11:26:57;;;;;;;4.20;3.50;;;;;;;0.38;83.55;98621.83;430062;1282;167479;-61
2022/11/17 11:37:08;;;;;;;5.20;3.40;;;;;;;0.23;82.90;98625.48;436252;1283;143235;-62
2022/11/17 11:47:25;;;;;;;4.60;4.10;;;;;;;0.09;82.86;98637.49;436264;1276;141761;-62
2022/11/17 11:57:36;;;;;;;6.70;4.50;;;;;;;-0.05;83.08;98635.44;435445;1283;200861;-62
2022/11/17 12:07:48;;;;;;;5.70;4.60;;;;;;;-0.24;82.93;98635.05;436267;1283;143307;-62
2022/11/17 12:18:00;;;;;;;5.10;4.10;;;;;;;-0.28;83.06;98635.03;435548;1284;142757;-61
2022/11/17 12:28:30;;;;;;;7.20;4.80;;;;;;;-0.37;82.88;98631.23;430940;1285;142649;-61
2022/11/17 12:38:42;;;;;;;6.40;5.40;;;;;;;-0.42;83.19;98623.66;435505;1280;142768;-62
2022/11/17 12:48:59;;;;;;;7.40;4.80;;;;;;;-0.42;83.15;98626.73;436365;1280;143229;-61
2022/11/17 12:59:31;;;;;;;7.90;5.50;;;;;;;-0.50;83.36;98620.83;436208;1283;141816;-61
2022/11/17 13:09:38;;;;;;;7.00;5.20;;;;;;;-0.53;83.31;98614.92;435676;1275;207628;-60
2022/11/17 13:19:44;;;;;;;5.40;4.80;;;;;;;-0.53;83.55;98612.16;436262;1284;142999;-61
2022/11/17 13:29:50;;;;;;;4.60;4.10;;;;;;;-0.61;83.03;98619.63;422340;1285;144265;-61
2022/11/17 13:39:58;;;;;;;5.40;4.70;;;;;;;-0.69;82.54;98615.28;431894;1288;142869;-62
2022/11/17 13:50:39;;;;;;;7.40;5.80;;;;;;;-0.76;82.59;98610.35;436252;1281;142805;-63
2022/11/17 14:00:52;;;;;;;7.80;4.80;;;;;;;-0.87;82.31;98609.84;435826;1282;207301;-61
2022/11/17 14:11:13;;;;;;;7.90;5.50;;;;;;;-0.87;82.68;98621.38;436273;1290;143718;-62
2022/11/17 14:21:19;;;;;;;7.80;5.30;;;;;;;-0.88;82.70;98615.70;435528;1284;186542;-62
2022/11/17 14:31:24;;;;;;;6.70;5.50;;;;;;;-0.86;83.00;98613.60;433458;1282;145428;-61
2022/11/17 14:41:30;;;;;;;6.60;5.30;;;;;;;-0.93;82.86;98611.94;436233;1283;142442;-62
2022/11/17 14:51:36;;;;;;;6.60;5.90;;;;;;;-1.07;82.84;98615.97;435762;1284;210098;-61
2022/11/17 15:01:42;;;;;;;5.40;4.70;;;;;;;-1.16;82.67;98622.94;436248;1284;156647;-61
2022/11/17 15:11:48;;;;;;;6.60;5.90;;;;;;;-1.27;82.65;98622.98;435507;1277;143552;-61
2022/11/17 15:21:53;;;;;;;7.30;6.30;;;;;;;-1.37;82.48;98609.20;436286;1280;146426;-61
2022/11/17 15:31:59;;;;;;;8.30;6.30;;;;;;;-1.40;82.63;98601.38;434230;1284;146875;-61
2022/11/17 15:42:05;;;;;;;7.00;6.30;;;;;;;-1.46;82.59;98595.71;435534;1282;142687;-61
2022/11/17 15:52:10;;;;;;;9.10;7.90;;;;;;;-1.49;82.63;98587.59;436030;1284;144365;-61
2022/11/17 16:02:16;;;;;;;9.90;6.70;;;;;;;-1.50;82.86;98584.38;433049;1280;142821;-62
2022/11/17 16:12:22;;;;;;;9.60;8.60;;;;;;;-1.53;82.85;98576.20;435308;1283;144427;-61
2022/11/17 16:22:28;;;;;;;11.80;10.60;;;;;;;-1.52;83.29;98560.58;436033;1290;142882;-62
2022/11/17 16:32:34;;;;;;;10.50;8.60;;;;;;;-1.54;83.45;98560.94;436024;1288;142890;-61
2022/11/17 16:42:40;;;;;;;9.50;8.50;;;;;;;-1.57;83.39;98547.48;435557;1280;212665;-62
2022/11/17 16:52:45;;;;;;;12.90;8.90;;;;;;;-1.56;83.52;98547.28;434061;1280;145608;-61
2022/11/17 17:02:51;;;;;;;11.20;10.00;;;;;;;-1.54;83.68;98553.41;435351;1280;144468;-62
2022/11/17 17:12:57;;;;;;;13.40;10.50;;;;;;;-1.54;83.69;98547.06;436023;1289;143152;-61
2022/11/17 17:23:02;;;;;;;14.30;11.10;;;;;;;-1.56;83.75;98541.79;426705;1280;146626;-62
2022/11/17 17:33:08;;;;;;;14.10;10.60;;;;;;;-1.65;83.80;98546.54;435132;1280;142486;-62
2022/11/17 17:43:14;;;;;;;13.60;11.90;;;;;;;-1.76;83.89;98548.09;433474;1282;143195;-61
2022/11/17 17:53:19;;;;;;;14.80;12.20;;;;;;;-1.81;84.12;98544.42;433626;1285;146831;-61
2022/11/17 18:03:25;;;;;;;17.40;12.20;;;;;;;-1.85;83.94;98543.52;434973;1283;143445;-62
2022/11/17 18:13:33;;;;;;;12.50;10.20;;;;;;;-1.87;84.19;98560.73;435790;1283;143526;-62
2022/11/17 18:23:39;;;;;;;13.80;11.00;;;;;;;-1.91;83.98;98562.73;434899;1289;144131;-62
2022/11/17 18:33:44;;;;;;;;;;;;;;;-1.93;84.34;98565.39;434639;1284;144151;-61
2022/11/17 18:43:51;;;;;;;12.10;10.40;;;;;;;-1.98;84.26;98566.20;419587;1285;129104;-63
2022/11/17 18:53:58;;;;;;;15.70;12.70;;;;;;;-2.05;84.19;98577.55;431646;1283;143236;-62
2022/11/17 19:04:04;;;;;;;13.60;12.20;;;;;;;-2.14;84.23;98573.02;435719;1284;145883;-62
2022/11/17 19:14:10;;;;;;;13.70;10.50;;;;;;;-2.19;84.14;98574.00;435721;1284;145326;-62
2022/11/17 19:24:16;;;;;;;12.00;10.70;;;;;;;-2.20;83.88;98566.31;434869;1285;143005;-61
2022/11/17 19:34:21;;;;;;;14.70;13.20;;;;;;;-2.21;83.99;98551.08;434619;1287;144115;-62
2022/11/17 19:44:29;;;;;;;13.40;11.60;;;;;;;-2.16;83.87;98550.26;421291;1285;142474;-62
2022/11/17 19:54:35;;;;;;;12.30;11.00;;;;;;;-2.14;83.93;98547.98;419053;1284;211513;-62
2022/11/17 20:04:41;;;;;;;12.70;11.00;;;;;;;-2.20;83.67;98544.04;419532;1281;143307;-62
2022/11/17 20:14:46;;;;;;;;;;;;;;;-2.29;83.35;98526.63;419884;1277;142966;-63
2022/11/17 20:24:52;;;;;;;15.30;12.40;;;;;;;-2.32;83.47;98513.35;420152;1277;129377;-63
2022/11/17 20:34:58;;;;;;;15.20;13.60;;;;;;;-2.29;83.66;98495.77;423749;1285;142318;-62
2022/11/17 20:45:04;;;;;;;13.90;11.80;;;;;;;-2.25;83.61;98492.06;422336;1281;147140;-63
2022/11/17 20:55:10;;;;;;;17.50;13.10;;;;;;;-2.25;83.60;98481.59;419656;1280;144762;-63
2022/11/17 21:05:15;;;;;;;16.50;14.70;;;;;;;-2.23;83.81;98477.42;421839;1277;144190;-63
2022/11/17 21:15:21;;;;;;;17.70;15.10;;;;;;;-2.23;83.66;98474.68;420481;1281;144233;-62
2022/11/17 21:25:27;;;;;;;16.30;13.70;;;;;;;-2.27;83.28;98473.94;420110;1281;142811;-61
2022/11/17 21:35:33;;;;;;;15.00;12.60;;;;;;;-2.27;83.44;98463.98;422403;1278;142255;-62
2022/11/17 21:45:39;;;;;;;15.50;13.20;;;;;;;-2.30;83.40;98449.86;421247;1281;212056;-61
2022/11/17 21:55:45;;;;;;;15.70;13.50;;;;;;;-2.29;83.23;98450.31;419725;1291;201422;-62
2022/11/17 22:05:51;;;;;;;13.30;11.90;;;;;;;-2.34;83.03;98447.55;419083;1280;144469;-64
2022/11/17 22:16:10;;;;;;;14.90;11.80;;;;;;;-2.45;82.89;98446.89;421208;1281;144608;-63
2022/11/17 22:26:16;;;;;;;14.60;13.10;;;;;;;-2.48;82.98;98448.16;422058;1277;143716;-62
2022/11/17 22:36:23;;;;;;;13.70;11.80;;;;;;;-2.51;82.81;98436.74;420746;1278;143966;-63
2022/11/17 22:46:29;;;;;;;15.10;12.40;;;;;;;-2.52;82.98;98430.78;419768;1280;142540;-63
2022/11/17 22:56:36;;;;;;;13.30;11.30;;;;;;;-2.50;83.16;98430.56;419785;1276;146672;-63
2022/11/17 23:06:42;;;;;;;12.70;11.40;;;;;;;-2.49;83.00;98429.31;420053;1280;142833;-61
2022/11/17 23:16:47;;;;;;;11.50;10.40;;;;;;;-2.45;82.80;98422.00;419629;1281;145932;-64
2022/11/17 23:26:53;;;;;;;12.80;11.00;;;;;;;-2.48;82.88;98417.98;420190;1278;144564;-63
2022/11/17 23:36:59;;;;;;;12.80;11.50;;;;;;;-2.52;82.81;98412.63;421930;1277;147523;-63
2022/11/17 23:47:08;;;;;;;11.70;10.50;;;;;;;-2.52;82.71;98401.64;419882;1277;144644;-63
2022/11/17 23:57:14;;;;;;;12.50;10.90;;;;;;;-2.67;82.26;98395.72;419037;1277;144269;-63
